Time;durP1;ratioP1;P1;durP2;ratioP2;P2;SDS_P1;SDS_P2;PMS_P1;PMS_P2;Temp;Humidity;BMP_temperature;BMP_pressure;BME280_temperature;BME280_humidity;BME280_pressure;Samples;Min_cycle;Max_cycle;Signal;HPM_P1;HPM_P2
2022/11/06 00:02:29;;;;;;;14.73;8.33;;;7.60;1.00;;;;;;5051706;28;20916;-80
2022/11/06 00:06:46;;;;;;;14.50;8.40;;;7.70;1.00;;;;;;5048588;28;20504;-80
2022/11/06 00:07:40;;;;;;;18.87;8.90;;;7.80;1.00;;;;;;5052957;28;20507;-80
2022/11/06 00:10:06;;;;;;;23.57;8.90;;;7.70;1.00;;;;;;5052711;28;21032;-80
2022/11/06 00:13:22;;;;;;;14.00;8.70;;;7.60;1.00;;;;;;5054299;28;20174;-88
2022/11/06 00:19:46;;;;;;;14.20;8.47;;;7.50;1.00;;;;;;5033955;28;20597;-88
2022/11/06 00:25:41;;;;;;;15.03;8.40;;;7.40;1.00;;;;;;5050118;28;20513;-88
2022/11/06 00:28:17;;;;;;;19.40;9.23;;;7.40;1.00;;;;;;5052101;28;20795;-81
2022/11/06 00:30:43;;;;;;;16.57;8.93;;;7.30;1.00;;;;;;5037729;28;20445;-80
2022/11/06 00:33:29;;;;;;;19.23;8.23;;;7.30;1.00;;;;;;5044483;28;20971;-81
2022/11/06 00:36:13;;;;;;;20.23;9.77;;;7.40;1.00;;;;;;5051673;28;20175;-81
2022/11/06 00:38:58;;;;;;;26.33;9.00;;;7.30;1.00;;;;;;5043006;28;20986;-81
2022/11/06 00:41:35;;;;;;;15.53;9.10;;;7.30;1.00;;;;;;5040275;28;20426;-88
2022/11/06 00:47:23;;;;;;;16.80;8.03;;;7.30;1.00;;;;;;5052325;28;20750;-88
2022/11/06 00:49:53;;;;;;;18.17;9.40;;;7.30;1.00;;;;;;5042762;28;20430;-88
2022/11/06 00:56:07;;;;;;;18.13;8.53;;;7.10;1.00;;;;;;5039666;28;20425;-88
2022/11/06 01:02:11;;;;;;;14.67;8.60;;;6.90;1.00;;;;;;5054727;28;20452;-88
2022/11/06 01:04:47;;;;;;;11.13;7.33;;;6.90;1.00;;;;;;5056409;28;20417;-88
2022/11/06 01:07:29;;;;;;;15.47;8.53;;;6.90;1.00;;;;;;5051451;28;20424;-88
2022/11/06 01:13:17;;;;;;;17.50;8.63;;;6.80;1.00;;;;;;5052580;28;20436;-88
2022/11/06 01:23:10;;;;;;;16.70;8.50;;;6.60;1.00;;;;;;5056356;28;20448;-88
2022/11/06 01:28:58;;;;;;;16.13;8.00;;;6.40;1.00;;;;;;5038882;28;20402;-88
2022/11/06 01:38:07;;;;;;;19.33;8.73;;;6.30;1.00;;;;;;5055881;28;20540;-88
2022/11/06 01:40:58;;;;;;;14.77;8.40;;;6.30;1.00;;;;;;5055660;28;20422;-88
2022/11/06 01:43:45;;;;;;;15.43;8.10;;;6.20;1.00;;;;;;5039332;28;20169;-88
2022/11/06 01:46:46;;;;;;;20.70;8.27;;;6.20;1.00;;;;;;5054190;28;20434;-88
2022/11/06 01:56:03;;;;;;;20.73;9.80;;;6.00;1.00;;;;;;5054747;28;20433;-88
2022/11/06 01:58:32;;;;;;;16.30;8.37;;;5.90;1.00;;;;;;5055296;28;20445;-81
2022/11/06 02:00:59;;;;;;;13.27;8.33;;;5.90;1.00;;;;;;5055818;28;20461;-80
2022/11/06 02:03:25;;;;;;;14.70;8.97;;;6.00;1.00;;;;;;5055942;28;20470;-81
2022/11/06 02:06:29;;;;;;;16.27;9.90;;;5.90;1.00;;;;;;5035898;28;20531;-81
2022/11/06 02:09:00;;;;;;;23.33;8.53;;;5.90;1.00;;;;;;5047749;28;20421;-80
2022/11/06 02:11:29;;;;;;;16.13;8.37;;;5.90;1.00;;;;;;5050513;28;20450;-81
2022/11/06 02:18:10;;;;;;;28.23;10.13;;;5.80;1.00;;;;;;5043079;28;20488;-88
2022/11/06 02:24:34;;;;;;;12.60;8.20;;;5.80;1.00;;;;;;5042632;28;20771;-88
2022/11/06 02:27:46;;;;;;;17.87;9.40;;;5.80;1.00;;;;;;5055225;28;20413;-88
2022/11/06 02:30:17;;;;;;;24.63;8.67;;;5.70;1.00;;;;;;5048915;28;20565;-80
2022/11/06 02:33:07;;;;;;;14.63;8.80;;;5.60;1.00;;;;;;5042736;28;20407;-81
2022/11/06 02:35:39;;;;;;;24.90;8.40;;;5.50;1.00;;;;;;5054858;28;20418;-81
2022/11/06 02:38:12;;;;;;;22.67;8.70;;;5.50;1.00;;;;;;5053752;28;20933;-80
2022/11/06 02:40:47;;;;;;;13.20;8.10;;;5.40;1.00;;;;;;5055458;28;20421;-80
2022/11/06 02:43:19;;;;;;;14.23;7.50;;;5.30;1.00;;;;;;5054273;28;20422;-81
2022/11/06 02:46:12;;;;;;;20.73;8.77;;;5.30;1.00;;;;;;5050661;28;20976;-80
2022/11/06 02:49:01;;;;;;;17.40;8.70;;;5.20;1.00;;;;;;5044440;28;20427;-80
2022/11/06 02:51:48;;;;;;;15.57;8.40;;;5.10;1.00;;;;;;5056586;28;20418;-82
2022/11/06 02:54:33;;;;;;;19.33;8.60;;;5.00;1.00;;;;;;5052696;28;20183;-80
2022/11/06 03:00:22;;;;;;;26.05;9.48;;;5.00;1.00;;;;;;5036772;28;20195;-88
2022/11/06 03:02:58;;;;;;;18.45;9.27;;;4.90;1.00;;;;;;5055425;28;20164;-88
2022/11/06 03:06:07;;;;;;;17.67;8.75;;;4.80;1.00;;;;;;5035897;28;20168;-88
2022/11/06 03:12:34;;;;;;;18.93;9.30;;;4.80;1.00;;;;;;4974919;28;20471;-88
2022/11/06 03:15:32;;;;;;;23.85;10.60;;;4.70;1.00;;;;;;4973673;28;20524;-88
2022/11/06 03:24:54;;;;;;;19.50;9.90;;;4.50;1.00;;;;;;4974707;28;20301;-88
2022/11/06 03:27:49;;;;;;;20.13;10.48;;;4.40;1.00;;;;;;4973939;28;20500;-88
2022/11/06 03:33:44;;;;;;;22.13;10.63;;;4.50;1.00;;;;;;4970330;28;20202;-88
2022/11/06 03:39:41;;;;;;;23.92;9.60;;;4.40;1.00;;;;;;4969139;28;20229;-88
2022/11/06 03:42:29;;;;;;;23.08;10.70;;;4.40;1.00;;;;;;4954259;29;20222;-88
2022/11/06 03:48:35;;;;;;;24.52;9.30;;;4.30;1.00;;;;;;5039248;28;20421;-87
2022/11/06 03:51:40;;;;;;;15.32;9.07;;;4.30;1.00;;;;;;5042409;28;20180;-88
2022/11/06 03:57:49;;;;;;;21.27;9.10;;;4.20;1.00;;;;;;5054721;28;20191;-88
2022/11/06 04:04:16;;;;;;;19.10;10.30;;;4.10;1.00;;;;;;5034958;28;20152;-88
2022/11/06 04:17:04;;;;;;;18.83;10.05;;;3.90;1.00;;;;;;5041146;28;20191;-80
2022/11/06 04:19:47;;;;;;;27.27;11.13;;;3.80;1.00;;;;;;5061078;28;20195;-80
2022/11/06 04:22:23;;;;;;;21.38;10.30;;;3.90;1.00;;;;;;5048725;28;20184;-80
2022/11/06 04:28:22;;;;;;;23.15;10.57;;;3.80;1.00;;;;;;5047057;28;20738;-81
2022/11/06 04:30:56;;;;;;;26.70;11.40;;;3.70;1.00;;;;;;5038493;28;20183;-88
2022/11/06 04:37:03;;;;;;;20.63;11.10;;;3.70;1.00;;;;;;5035169;28;20830;-88
2022/11/06 04:39:55;;;;;;;30.95;11.75;;;3.60;1.00;;;;;;5033597;28;20235;-88
2022/11/06 04:43:04;;;;;;;21.85;11.40;;;3.50;1.00;;;;;;5033383;28;20172;-88
2022/11/06 04:45:47;;;;;;;22.73;11.35;;;3.50;1.00;;;;;;5050153;28;20180;-80
2022/11/06 04:48:17;;;;;;;30.48;14.10;;;3.50;1.00;;;;;;5034145;28;20184;-80
2022/11/06 04:51:02;;;;;;;23.50;11.68;;;3.50;1.00;;;;;;5052765;28;20202;-80
2022/11/06 04:53:42;;;;;;;24.95;11.73;;;3.40;1.00;;;;;;5033901;28;20338;-81
2022/11/06 04:56:35;;;;;;;23.33;11.30;;;3.40;1.00;;;;;;5049842;28;20567;-82
2022/11/06 04:59:14;;;;;;;23.40;12.07;;;3.40;1.00;;;;;;5047499;28;20211;-81
2022/11/06 05:01:40;;;;;;;25.75;10.95;;;3.50;1.00;;;;;;5032112;28;20179;-87
2022/11/06 05:04:11;;;;;;;25.47;11.40;;;3.40;1.00;;;;;;5047019;28;20183;-81
2022/11/06 05:06:41;;;;;;;22.23;11.20;;;3.40;1.00;;;;;;5051807;28;20172;-80
2022/11/06 05:09:29;;;;;;;20.20;11.23;;;3.40;1.00;;;;;;5052042;28;20191;-80
2022/11/06 05:11:59;;;;;;;27.48;11.40;;;3.30;1.00;;;;;;5051740;28;20183;-81
2022/11/06 05:14:35;;;;;;;25.42;11.60;;;3.30;1.00;;;;;;5044966;28;20667;-81
2022/11/06 05:17:11;;;;;;;17.95;10.40;;;3.30;1.00;;;;;;5046440;28;20650;-80
2022/11/06 05:19:41;;;;;;;24.35;11.35;;;3.30;1.00;;;;;;5052581;28;20686;-80
2022/11/06 05:25:17;;;;;;;21.48;10.95;;;3.20;1.00;;;;;;5049831;28;20237;-81
2022/11/06 05:28:10;;;;;;;20.80;11.50;;;3.20;1.00;;;;;;5045746;28;20171;-80
2022/11/06 05:31:11;;;;;;;21.55;11.10;;;3.10;1.00;;;;;;5056928;28;20180;-80
2022/11/06 05:33:41;;;;;;;17.75;10.55;;;3.10;1.00;;;;;;5054352;28;20180;-81
2022/11/06 05:36:17;;;;;;;19.15;10.70;;;3.10;1.00;;;;;;5035396;28;20173;-80
2022/11/06 05:38:53;;;;;;;23.90;11.20;;;3.00;1.00;;;;;;5051533;28;20238;-81
2022/11/06 05:41:52;;;;;;;23.38;12.32;;;3.00;1.00;;;;;;5049431;28;20542;-81
2022/11/06 05:44:18;;;;;;;20.95;11.30;;;3.00;1.00;;;;;;5045585;28;20180;-79
2022/11/06 05:47:22;;;;;;;21.00;10.30;;;3.00;1.00;;;;;;5041720;28;20184;-80
2022/11/06 05:49:48;;;;;;;20.73;9.80;;;3.00;1.00;;;;;;5049656;28;20214;-80
2022/11/06 05:52:17;;;;;;;20.03;9.90;;;3.00;1.00;;;;;;5036250;28;20184;-80
2022/11/06 05:58:05;;;;;;;17.70;10.85;;;2.90;1.00;;;;;;5044999;28;20183;-81
2022/11/06 06:00:59;;;;;;;21.73;10.70;;;2.80;1.00;;;;;;5057756;28;20164;-80
2022/11/06 06:04:04;;;;;;;19.48;9.98;;;2.80;1.00;;;;;;5054395;28;20199;-81
2022/11/06 06:06:35;;;;;;;21.83;10.43;;;2.70;1.00;;;;;;5039540;28;20181;-80
2022/11/06 06:09:23;;;;;;;21.25;10.55;;;2.70;1.00;;;;;;5040978;28;20225;-80
2022/11/06 06:11:53;;;;;;;17.63;9.30;;;2.70;1.00;;;;;;5042072;28;20184;-80
2022/11/06 06:14:23;;;;;;;13.70;8.63;;;2.80;1.00;;;;;;5034929;28;20188;-81
2022/11/06 06:16:53;;;;;;;19.13;9.05;;;2.80;1.00;;;;;;5050802;28;20215;-80
2022/11/06 06:19:23;;;;;;;18.20;9.18;;;2.70;1.00;;;;;;5042181;28;20200;-80
2022/11/06 06:21:59;;;;;;;18.88;10.38;;;2.70;1.00;;;;;;5055179;28;20167;-81
2022/11/06 06:24:35;;;;;;;21.27;10.57;;;2.70;1.00;;;;;;5046764;28;20241;-81
2022/11/06 06:27:17;;;;;;;26.80;9.70;;;2.70;1.00;;;;;;5055998;28;20175;-81
2022/11/06 06:29:59;;;;;;;20.35;9.90;;;2.70;1.00;;;;;;5053541;28;20214;-81
2022/11/06 06:32:41;;;;;;;25.55;9.30;;;2.60;1.00;;;;;;5035566;28;20180;-81
2022/11/06 06:35:11;;;;;;;21.05;9.70;;;2.50;1.00;;;;;;5044637;28;20263;-81
2022/11/06 06:37:59;;;;;;;22.17;9.80;;;2.60;1.00;;;;;;5054702;28;20248;-81
2022/11/06 06:40:46;;;;;;;25.58;10.48;;;2.60;1.00;;;;;;5043698;28;20710;-80
2022/11/06 06:43:41;;;;;;;18.58;9.38;;;2.60;1.00;;;;;;5051430;28;20191;-80
2022/11/06 06:46:17;;;;;;;19.25;9.23;;;2.70;1.00;;;;;;5042556;28;20195;-80
2022/11/06 06:48:53;;;;;;;18.42;9.13;;;2.70;1.00;;;;;;5052531;28;20533;-80
2022/11/06 06:51:23;;;;;;;15.70;9.50;;;2.70;1.00;;;;;;5046471;28;20632;-80
2022/11/06 06:53:59;;;;;;;22.85;9.35;;;2.70;1.00;;;;;;5035654;28;20172;-80
2022/11/06 06:56:35;;;;;;;14.88;8.98;;;2.70;1.00;;;;;;5053272;28;20179;-80
2022/11/06 06:59:11;;;;;;;21.58;9.38;;;2.70;1.00;;;;;;5054371;28;20199;-80
2022/11/06 07:05:05;;;;;;;17.60;9.23;;;2.80;1.00;;;;;;5044994;28;20258;-89
2022/11/06 07:11:01;;;;;;;21.30;8.93;;;2.80;1.00;;;;;;5040618;28;20236;-89
2022/11/06 07:13:53;;;;;;;17.73;9.00;;;2.90;1.00;;;;;;5055292;28;20191;-88
2022/11/06 07:16:20;;;;;;;19.63;8.98;;;2.90;1.00;;;;;;5033974;28;20196;-80
2022/11/06 07:18:46;;;;;;;25.80;9.75;;;2.90;1.00;;;;;;5037436;28;20191;-77
2022/11/06 07:25:10;;;;;;;16.80;9.82;;;3.00;1.00;;;;;;5062913;28;20696;-81
2022/11/06 07:27:36;;;;;;;20.92;9.65;;;3.00;1.00;;;;;;5034577;28;20161;-77
2022/11/06 07:30:41;;;;;;;14.63;8.93;;;3.00;1.00;;;;;;5050345;28;20258;-85
2022/11/06 07:33:35;;;;;;;18.35;9.23;;;3.10;1.00;;;;;;5036702;28;20460;-90
2022/11/06 07:39:23;;;;;;;17.88;9.45;;;3.40;1.00;;;;;;5054899;28;20230;-86
2022/11/06 07:42:05;;;;;;;15.40;9.00;;;3.50;1.00;;;;;;5045391;28;20661;-90
2022/11/06 07:44:35;;;;;;;19.23;8.88;;;3.60;1.00;;;;;;5054330;28;20550;-87
2022/11/06 07:47:05;;;;;;;26.83;9.27;;;3.70;1.00;;;;;;5056041;28;20652;-78
2022/11/06 07:49:38;;;;;;;18.98;10.00;;;3.80;1.00;;;;;;5049211;28;20245;-78
2022/11/06 07:52:05;;;;;;;14.15;9.15;;;3.80;1.00;;;;;;5053525;28;20217;-78
2022/11/06 07:54:35;;;;;;;17.60;9.02;;;3.90;1.00;;;;;;5043109;28;20187;-79
2022/11/06 07:57:01;;;;;;;15.38;9.20;;;4.00;1.00;;;;;;5041808;28;20754;-78
2022/11/06 07:59:29;;;;;;;17.67;9.37;;;4.10;1.40;;;;;;5053894;28;20274;-78
2022/11/06 08:02:13;;;;;;;14.93;8.98;;;4.20;1.00;;;;;;5052007;28;20716;-78
2022/11/06 08:04:59;;;;;;;15.25;8.18;;;4.30;1.00;;;;;;5051019;28;20640;-79
2022/11/06 08:07:36;;;;;;;17.95;9.02;;;4.40;2.20;;;;;;5045441;28;20180;-78
2022/11/06 08:10:11;;;;;;;23.30;8.80;;;4.60;1.20;;;;;;5032373;28;20191;-78
2022/11/06 08:13:05;;;;;;;15.70;8.60;;;4.70;1.90;;;;;;5045600;28;20796;-79
2022/11/06 08:16:02;;;;;;;22.20;9.60;;;4.90;2.40;;;;;;5033651;28;20930;-79
2022/11/06 08:18:29;;;;;;;15.90;9.07;;;5.00;3.10;;;;;;5042520;28;20783;-80
2022/11/06 08:20:56;;;;;;;13.70;8.33;;;5.10;4.40;;;;;;5033255;28;20391;-79
2022/11/06 08:23:35;;;;;;;20.90;9.50;;;5.10;5.50;;;;;;5049519;28;20511;-79
2022/11/06 08:26:03;;;;;;;16.87;8.83;;;5.30;6.00;;;;;;5049185;28;20417;-79
2022/11/06 08:28:35;;;;;;;16.43;9.47;;;5.40;5.20;;;;;;5040183;28;20415;-79
2022/11/06 08:31:17;;;;;;;13.57;8.50;;;5.60;5.60;;;;;;5050176;28;20422;-79
2022/11/06 08:33:43;;;;;;;15.03;8.83;;;5.70;7.20;;;;;;5053504;28;20433;-79
2022/11/06 08:36:09;;;;;;;19.23;10.37;;;5.90;4.60;;;;;;5053273;28;20796;-78
2022/11/06 08:39:05;;;;;;;19.13;9.77;;;6.00;5.20;;;;;;5039727;28;20211;-78
2022/11/06 08:41:30;;;;;;;19.97;9.93;;;6.00;6.50;;;;;;5036143;28;20897;-79
2022/11/06 08:43:59;;;;;;;21.70;11.13;;;6.20;9.10;;;;;;5043885;28;20403;-84
2022/11/06 08:46:25;;;;;;;20.20;10.80;;;6.40;9.20;;;;;;5038932;28;20208;-72
2022/11/06 08:48:50;;;;;;;19.80;10.93;;;6.50;8.30;;;;;;5047251;28;21074;-72
2022/11/06 08:51:16;;;;;;;22.90;11.27;;;6.50;8.90;;;;;;5049187;28;20271;-72
2022/11/06 08:53:42;;;;;;;26.83;13.70;;;6.70;9.90;;;;;;5048430;28;20262;-71
2022/11/06 08:56:08;;;;;;;28.80;14.30;;;6.80;7.60;;;;;;5045890;28;20674;-72
2022/11/06 08:58:34;;;;;;;26.47;15.57;;;7.00;7.60;;;;;;5052805;28;20639;-72
2022/11/06 09:00:59;;;;;;;33.63;15.57;;;7.10;6.80;;;;;;5041438;28;20188;-72
2022/11/06 09:03:25;;;;;;;27.60;15.47;;;7.20;5.60;;;;;;5052275;28;20414;-69
2022/11/06 09:05:51;;;;;;;27.17;13.73;;;7.40;3.30;;;;;;5056702;28;20179;-69
2022/11/06 09:08:16;;;;;;;28.87;14.33;;;7.50;2.00;;;;;;5046332;28;20187;-69
2022/11/06 09:10:43;;;;;;;21.83;12.50;;;7.60;1.00;;;;;;5055322;28;20184;-69
2022/11/06 09:13:09;;;;;;;19.43;11.97;;;7.60;1.00;;;;;;5055583;28;20172;-69
2022/11/06 09:15:36;;;;;;;27.00;10.47;;;7.70;1.00;;;;;;5054124;28;21114;-69
2022/11/06 09:18:02;;;;;;;18.10;9.40;;;7.80;1.00;;;;;;5048914;28;20915;-69
2022/11/06 09:20:28;;;;;;;16.67;10.70;;;7.90;1.00;;;;;;5053355;28;20445;-69
2022/11/06 09:22:58;;;;;;;19.53;9.10;;;8.00;1.00;;;;;;5047413;28;20188;-69
2022/11/06 09:25:24;;;;;;;26.40;9.93;;;8.00;1.00;;;;;;5045905;28;20530;-69
2022/11/06 09:27:52;;;;;;;18.57;8.70;;;8.20;1.00;;;;;;5051128;28;20509;-69
2022/11/06 09:30:20;;;;;;;15.10;8.50;;;8.20;1.00;;;;;;5051836;28;20593;-69
2022/11/06 09:32:54;;;;;;;14.73;8.87;;;8.30;1.00;;;;;;5039781;28;20426;-69
2022/11/06 09:35:21;;;;;;;12.23;7.20;;;8.40;1.00;;;;;;5049982;28;20432;-69
2022/11/06 09:37:48;;;;;;;12.37;7.40;;;8.40;1.00;;;;;;5043193;28;20441;-69
2022/11/06 09:40:22;;;;;;;12.93;7.30;;;8.50;1.00;;;;;;5055177;28;20505;-69
2022/11/06 09:43:23;;;;;;;15.47;7.10;;;8.60;1.00;;;;;;5047499;28;20425;-69
2022/11/06 09:45:50;;;;;;;8.93;6.03;;;8.70;1.00;;;;;;5049302;28;20525;-69
2022/11/06 09:48:38;;;;;;;10.67;5.60;;;8.80;1.00;;;;;;5045249;28;20423;-80
2022/11/06 09:51:59;;;;;;;12.63;5.47;;;8.90;1.00;;;;;;5038700;28;20518;-80
2022/11/06 09:54:38;;;;;;;10.73;5.60;;;9.00;1.00;;;;;;5054199;28;20394;-79
2022/11/06 09:57:28;;;;;;;10.70;5.60;;;9.10;1.00;;;;;;5040471;28;20461;-78
2022/11/06 10:00:06;;;;;;;16.73;6.07;;;9.10;1.00;;;;;;5051345;28;20525;-79
2022/11/06 10:03:00;;;;;;;7.70;4.37;;;9.20;1.00;;;;;;5050899;28;20422;-79
2022/11/06 10:05:35;;;;;;;10.67;4.80;;;9.20;1.00;;;;;;4975182;28;20422;-80
2022/11/06 10:08:21;;;;;;;6.47;4.30;;;9.40;1.00;;;;;;4975017;28;20433;-80
2022/11/06 10:11:29;;;;;;;8.47;4.50;;;9.50;1.00;;;;;;4975280;28;20414;-80
2022/11/06 10:14:41;;;;;;;5.30;3.90;;;9.60;1.00;;;;;;4976261;28;20955;-81
2022/11/06 10:21:11;;;;;;;6.43;4.37;;;9.70;1.00;;;;;;4975684;28;21035;-89
2022/11/06 10:23:58;;;;;;;4.37;3.80;;;9.70;1.00;;;;;;4974955;28;20574;-89
2022/11/06 10:26:33;;;;;;;6.57;3.93;;;9.90;1.00;;;;;;4978147;28;20426;-89
2022/11/06 10:29:41;;;;;;;9.83;4.50;;;9.90;1.00;;;;;;4975693;28;20500;-88
2022/11/06 10:32:43;;;;;;;7.27;3.77;;;10.00;1.00;;;;;;4975612;28;20426;-80
2022/11/06 10:35:47;;;;;;;10.17;4.10;;;10.20;1.00;;;;;;4975565;28;20421;-89
2022/11/06 10:38:26;;;;;;;4.30;3.23;;;10.30;1.00;;;;;;4977067;28;20448;-89
2022/11/06 10:41:15;;;;;;;11.63;4.50;;;10.50;1.00;;;;;;4979761;28;21039;-89
2022/11/06 10:44:17;;;;;;;6.43;3.60;;;10.60;1.00;;;;;;5052590;28;20446;-84
2022/11/06 10:47:11;;;;;;;6.17;3.60;;;10.80;1.00;;;;;;4974087;28;20420;-83
2022/11/06 10:50:09;;;;;;;5.80;4.17;;;10.90;1.00;;;;;;4916729;29;20448;-84
2022/11/06 10:52:53;;;;;;;10.03;3.93;;;11.10;1.00;;;;;;4917287;29;20436;-85
2022/11/06 10:56:05;;;;;;;9.80;4.10;;;11.30;1.00;;;;;;4915825;29;20847;-83
2022/11/06 10:58:59;;;;;;;4.97;3.73;;;11.40;1.00;;;;;;4916790;29;20469;-83
2022/11/06 11:01:37;;;;;;;12.90;3.90;;;11.60;1.00;;;;;;4916446;29;20499;-83
2022/11/06 11:04:05;;;;;;;11.03;3.03;;;12.00;1.00;;;;;;4916956;29;20430;-82
2022/11/06 11:06:31;;;;;;;28.10;16.00;;;12.30;1.00;;;;;;4916558;29;20436;-84
2022/11/06 11:09:31;;;;;;;8.67;5.17;;;12.60;1.00;;;;;;4916890;29;21038;-85
2022/11/06 11:11:58;;;;;;;18.73;10.30;;;12.80;1.00;;;;;;4913677;29;20306;-85
2022/11/06 11:14:27;;;;;;;213.97;107.53;;;12.80;1.00;;;;;;4916658;29;20431;-85
2022/11/06 11:16:54;;;;;;;189.80;90.67;;;12.90;1.00;;;;;;4916677;29;20436;-85
2022/11/06 11:20:05;;;;;;;131.60;62.93;;;12.90;1.00;;;;;;4916644;29;20547;-83
2022/11/06 11:22:43;;;;;;;138.93;68.13;;;12.90;1.00;;;;;;4936714;28;20916;-83
2022/11/06 11:25:38;;;;;;;104.00;46.23;;;13.10;1.00;;;;;;4990525;28;20395;-83
2022/11/06 11:31:33;;;;;;;68.60;30.27;;;13.20;1.00;;;;;;4975510;28;20434;-84
2022/11/06 11:34:17;;;;;;;7.50;4.13;;;13.40;1.00;;;;;;4993212;28;20908;-84
2022/11/06 11:37:01;;;;;;;35.03;17.43;;;13.50;1.00;;;;;;4989356;28;20421;-83
2022/11/06 11:39:43;;;;;;;89.90;41.37;;;13.50;1.00;;;;;;4958394;28;20528;-84
2022/11/06 11:46:05;;;;;;;163.13;69.50;;;13.50;1.00;;;;;;4992159;28;20396;-83
2022/11/06 11:49:06;;;;;;;75.47;32.07;;;13.50;1.00;;;;;;4991562;28;20432;-82
2022/11/06 11:51:53;;;;;;;200.83;100.13;;;13.70;1.00;;;;;;4981132;28;20436;-82
2022/11/06 11:55:05;;;;;;;43.43;23.40;;;13.70;1.00;;;;;;4987852;28;21048;-83
2022/11/06 11:57:45;;;;;;;31.97;17.90;;;13.90;1.00;;;;;;4973415;28;20523;-83
2022/11/06 12:00:19;;;;;;;15.73;8.40;;;13.90;1.00;;;;;;4980741;28;20472;-83
2022/11/06 12:03:09;;;;;;;51.53;23.00;;;13.90;1.00;;;;;;4991552;28;20424;-83
2022/11/06 12:05:40;;;;;;;29.97;13.07;;;14.00;1.00;;;;;;5039757;28;20520;-82
2022/11/06 12:11:30;;;;;;;83.70;46.30;;;14.00;1.00;;;;;;5051512;28;20460;-83
2022/11/06 12:17:38;;;;;;;357.53;181.67;;;13.90;1.00;;;;;;5046869;28;20481;-84
2022/11/06 12:20:13;;;;;;;63.10;29.50;;;14.10;1.00;;;;;;5039140;28;20452;-89
2022/11/06 12:22:44;;;;;;;67.37;30.00;;;14.10;1.00;;;;;;5042193;28;20479;-89
2022/11/06 12:25:24;;;;;;;21.27;9.67;;;14.10;1.00;;;;;;5051419;28;20430;-84
2022/11/06 12:27:53;;;;;;;200.70;96.47;;;14.20;1.00;;;;;;5048548;28;20457;-73
2022/11/06 12:30:20;;;;;;;86.03;43.23;;;14.30;1.00;;;;;;5051251;28;20406;-73
2022/11/06 12:33:04;;;;;;;108.33;55.30;;;14.40;1.00;;;;;;5050489;28;20849;-73
2022/11/06 12:35:50;;;;;;;125.27;62.63;;;14.50;1.00;;;;;;5038531;28;20513;-73
2022/11/06 12:38:23;;;;;;;114.27;53.47;;;14.40;1.00;;;;;;5039560;28;20392;-74
2022/11/06 12:41:18;;;;;;;36.00;18.63;;;14.50;1.00;;;;;;5043304;28;20908;-73
2022/11/06 12:43:46;;;;;;;23.83;12.47;;;14.50;1.00;;;;;;5048814;28;20821;-73
2022/11/06 12:46:19;;;;;;;52.50;26.23;;;14.60;1.00;;;;;;5042960;28;20401;-73
2022/11/06 12:49:08;;;;;;;100.03;43.97;;;14.60;1.00;;;;;;5051949;28;20434;-77
2022/11/06 12:52:05;;;;;;;177.83;80.70;;;14.70;1.00;;;;;;5053200;28;20489;-78
2022/11/06 12:54:53;;;;;;;49.13;23.93;;;14.70;1.00;;;;;;5039504;28;20413;-77
2022/11/06 12:57:46;;;;;;;72.40;32.50;;;14.60;1.00;;;;;;5040204;28;20411;-78
2022/11/06 13:00:21;;;;;;;112.73;59.30;;;14.60;1.00;;;;;;5047146;28;20536;-77
2022/11/06 13:03:16;;;;;;;28.63;18.00;;;14.60;1.00;;;;;;5047004;28;20413;-77
2022/11/06 13:06:19;;;;;;;33.63;20.33;;;14.50;1.00;;;;;;5047511;28;20432;-81
2022/11/06 13:09:16;;;;;;;14.57;9.27;;;14.30;1.00;;;;;;5046548;28;20446;-78
2022/11/06 13:11:54;;;;;;;11.20;8.13;;;14.00;1.00;;;;;;5050530;28;20458;-77
2022/11/06 13:14:59;;;;;;;14.40;9.80;;;13.90;1.00;;;;;;5054532;28;20430;-77
2022/11/06 13:17:54;;;;;;;8.53;6.40;;;13.90;1.00;;;;;;5035728;28;20517;-78
2022/11/06 13:20:52;;;;;;;39.93;22.07;;;13.70;1.00;;;;;;4979835;28;20841;-78
2022/11/06 13:23:38;;;;;;;69.83;33.63;;;13.70;1.00;;;;;;4963042;28;20425;-78
2022/11/06 13:26:26;;;;;;;51.27;27.73;;;13.80;1.00;;;;;;4987444;28;20439;-78
2022/11/06 13:28:59;;;;;;;111.97;56.47;;;13.80;1.00;;;;;;4984212;28;20444;-77
2022/11/06 13:31:54;;;;;;;21.20;13.03;;;13.90;1.00;;;;;;4990031;28;20433;-77
2022/11/06 13:34:34;;;;;;;14.03;10.20;;;14.00;1.00;;;;;;4992017;28;20474;-78
2022/11/06 13:37:14;;;;;;;57.57;28.60;;;14.10;1.00;;;;;;4991395;28;20415;-77
2022/11/06 13:39:57;;;;;;;7.10;4.60;;;14.20;1.00;;;;;;4991505;28;20499;-77
2022/11/06 13:42:28;;;;;;;22.13;12.60;;;14.20;1.00;;;;;;4979243;28;20784;-77
2022/11/06 13:45:00;;;;;;;4.20;3.53;;;14.20;1.00;;;;;;4990259;28;20925;-76
2022/11/06 13:47:45;;;;;;;9.77;7.13;;;14.10;1.00;;;;;;4983639;28;20413;-78
2022/11/06 13:50:21;;;;;;;28.93;15.13;;;14.20;1.00;;;;;;4990423;28;20400;-77
2022/11/06 13:52:56;;;;;;;37.13;20.93;;;14.10;1.00;;;;;;4977462;28;20476;-76
2022/11/06 13:55:57;;;;;;;48.40;32.20;;;14.10;1.00;;;;;;4988018;28;20421;-77
2022/11/06 13:58:36;;;;;;;34.40;24.33;;;14.00;1.00;;;;;;5032432;28;20960;-77
2022/11/06 14:01:10;;;;;;;62.67;39.30;;;14.00;1.00;;;;;;5049802;28;20426;-76
2022/11/06 14:03:45;;;;;;;28.50;19.07;;;13.90;1.00;;;;;;5044580;28;20981;-76
2022/11/06 14:06:16;;;;;;;244.00;143.27;;;13.70;1.00;;;;;;5048464;28;20465;-77
2022/11/06 14:08:44;;;;;;;29.20;18.57;;;13.80;1.00;;;;;;5045897;28;20426;-78
2022/11/06 14:11:26;;;;;;;27.63;17.80;;;13.90;1.00;;;;;;5046666;28;20797;-78
2022/11/06 14:14:06;;;;;;;43.97;27.87;;;13.90;1.00;;;;;;5054731;28;20434;-77
2022/11/06 14:17:10;;;;;;;54.63;35.53;;;13.90;1.00;;;;;;5035885;28;20387;-77
2022/11/06 14:19:36;;;;;;;11.57;7.90;;;13.90;1.00;;;;;;5055830;28;20449;-74
2022/11/06 14:22:07;;;;;;;45.60;26.23;;;13.80;1.00;;;;;;5047169;28;20782;-73
2022/11/06 14:24:35;;;;;;;8.80;5.57;;;13.80;1.00;;;;;;5049179;28;20409;-73
2022/11/06 14:27:05;;;;;;;168.13;58.57;;;13.90;1.00;;;;;;5051164;28;20419;-73
2022/11/06 14:29:34;;;;;;;94.27;37.00;;;13.90;1.00;;;;;;5035599;28;20415;-73
2022/11/06 14:32:20;;;;;;;8.90;5.03;;;13.80;1.00;;;;;;5049319;28;20468;-73
2022/11/06 14:34:46;;;;;;;15.00;7.93;;;13.70;1.00;;;;;;5054881;28;20434;-76
2022/11/06 14:37:40;;;;;;;8.33;5.33;;;13.60;1.00;;;;;;5043052;28;20460;-76
2022/11/06 14:40:12;;;;;;;3.87;2.70;;;13.50;1.00;;;;;;5012739;28;20471;-76
2022/11/06 14:42:44;;;;;;;6.97;3.47;;;13.30;1.00;;;;;;5012872;28;20532;-76
2022/11/06 14:45:17;;;;;;;3.17;2.13;;;13.20;1.00;;;;;;5009717;28;20451;-76
2022/11/06 14:48:00;;;;;;;2.20;2.00;;;13.30;1.00;;;;;;4990355;28;20490;-76
2022/11/06 14:50:48;;;;;;;5.73;3.90;;;13.20;1.00;;;;;;5013495;28;20461;-76
2022/11/06 14:53:24;;;;;;;2.53;2.33;;;13.20;1.00;;;;;;5012669;28;20434;-76
2022/11/06 14:56:36;;;;;;;3.10;2.50;;;13.10;1.00;;;;;;5013452;28;20414;-76
2022/11/06 14:59:25;;;;;;;2.87;2.07;;;13.10;1.00;;;;;;4993966;28;20457;-76
2022/11/06 15:02:22;;;;;;;3.27;2.20;;;13.00;1.00;;;;;;5012680;28;20428;-76
2022/11/06 15:05:16;;;;;;;3.03;2.23;;;12.90;1.00;;;;;;5003319;28;20463;-75
2022/11/06 15:07:47;;;;;;;2.93;2.63;;;12.90;1.00;;;;;;4995977;28;20778;-76
2022/11/06 15:10:45;;;;;;;3.57;2.53;;;12.90;1.00;;;;;;5004928;28;20450;-76
2022/11/06 15:13:23;;;;;;;2.77;2.57;;;12.70;1.00;;;;;;5003951;28;20539;-76
2022/11/06 15:15:56;;;;;;;5.80;2.57;;;12.60;1.00;;;;;;5011245;28;20447;-76
2022/11/06 15:18:24;;;;;;;2.50;2.30;;;12.60;1.00;;;;;;5041380;28;20470;-76
2022/11/06 15:21:03;;;;;;;2.53;2.37;;;12.50;1.00;;;;;;5044048;28;20458;-76
2022/11/06 15:23:41;;;;;;;5.17;2.60;;;12.50;1.00;;;;;;5044423;28;20759;-77
2022/11/06 15:26:25;;;;;;;5.03;2.70;;;12.40;1.00;;;;;;5049413;28;20444;-76
2022/11/06 15:29:14;;;;;;;5.87;3.00;;;12.40;1.00;;;;;;5035712;28;21021;-76
2022/11/06 15:31:42;;;;;;;4.90;2.90;;;12.40;1.00;;;;;;4987239;28;20530;-76
2022/11/06 15:34:47;;;;;;;3.20;2.90;;;12.40;1.00;;;;;;4994698;28;20515;-77
2022/11/06 15:37:23;;;;;;;4.73;2.60;;;12.30;1.00;;;;;;4926533;29;20478;-73
2022/11/06 15:39:51;;;;;;;2.77;1.90;;;12.20;1.00;;;;;;4933986;29;20979;-73
2022/11/06 15:42:24;;;;;;;3.30;1.97;;;12.10;1.00;;;;;;4934648;29;20978;-79
2022/11/06 15:45:18;;;;;;;3.40;2.57;;;12.10;1.00;;;;;;4930919;29;20433;-75
2022/11/06 15:48:20;;;;;;;6.50;2.70;;;12.00;1.00;;;;;;4929239;29;20454;-75
2022/11/06 15:50:54;;;;;;;4.03;2.40;;;11.90;1.00;;;;;;4933264;29;20438;-75
2022/11/06 15:53:26;;;;;;;1.97;1.87;;;11.90;1.00;;;;;;4932203;29;20545;-75
2022/11/06 15:55:57;;;;;;;10.53;2.80;;;11.70;1.00;;;;;;4934213;29;20475;-75
2022/11/06 15:58:29;;;;;;;5.13;2.53;;;11.70;1.00;;;;;;4934596;29;20481;-75
2022/11/06 16:00:54;;;;;;;2.30;2.10;;;11.70;1.00;;;;;;4935229;29;20945;-75
2022/11/06 16:03:50;;;;;;;3.10;2.10;;;11.60;1.00;;;;;;4936051;29;20450;-74
2022/11/06 16:06:31;;;;;;;5.90;2.90;;;11.50;1.00;;;;;;4934652;29;20219;-76
2022/11/06 16:09:35;;;;;;;2.33;2.23;;;11.50;1.00;;;;;;4947714;28;20453;-76
2022/11/06 16:12:15;;;;;;;2.67;2.27;;;11.40;1.00;;;;;;4967264;28;20484;-76
2022/11/06 16:14:54;;;;;;;3.43;2.30;;;11.40;1.00;;;;;;5039688;28;20954;-76
2022/11/06 16:17:25;;;;;;;2.70;2.30;;;11.30;1.00;;;;;;5039806;28;20430;-76